Time;durP1;ratioP1;P1;durP2;ratioP2;P2;SDS_P1;SDS_P2;PMS_P1;PMS_P2;Temp;Humidity;BMP_temperature;BMP_pressure;BME280_temperature;BME280_humidity;BME280_pressure;Samples;Min_cycle;Max_cycle;Signal;HPM_P1;HPM_P2
2021/03/02 00:01:04;;;;;;;9.50;6.53;;;6.30;99.90;;;;;;5037850;28;20484;-62
2021/03/02 00:03:31;;;;;;;7.90;5.80;;;6.20;99.90;;;;;;5036653;28;20445;-63
2021/03/02 00:05:57;;;;;;;8.83;5.87;;;6.20;99.90;;;;;;5029395;28;20487;-63
2021/03/02 00:08:22;;;;;;;11.10;6.40;;;6.20;99.90;;;;;;5035297;28;20414;-63
2021/03/02 00:10:48;;;;;;;8.27;5.87;;;6.10;99.90;;;;;;5030874;28;20631;-63
2021/03/02 00:13:14;;;;;;;8.17;6.40;;;6.20;99.90;;;;;;5055994;28;20181;-64
2021/03/02 00:15:40;;;;;;;10.83;7.30;;;6.10;99.90;;;;;;5055809;28;20173;-63
2021/03/02 00:18:07;;;;;;;8.03;6.63;;;6.00;99.90;;;;;;5051712;28;20782;-63
2021/03/02 00:20:36;;;;;;;9.77;6.67;;;6.00;99.90;;;;;;5036130;28;20211;-63
2021/03/02 00:23:21;;;;;;;8.60;6.70;;;6.00;99.90;;;;;;5027595;28;20459;-63
2021/03/02 00:25:52;;;;;;;9.93;7.53;;;6.00;99.90;;;;;;5024461;28;20850;-63
2021/03/02 00:28:20;;;;;;;8.00;6.40;;;6.00;99.90;;;;;;5016365;28;20394;-63
2021/03/02 00:30:50;;;;;;;9.50;7.27;;;6.00;99.90;;;;;;5015857;28;20438;-63
2021/03/02 00:33:17;;;;;;;8.50;7.30;;;6.10;99.90;;;;;;5027639;28;20402;-63
2021/03/02 00:35:42;;;;;;;8.93;6.00;;;6.00;99.90;;;;;;5029588;28;20560;-64
2021/03/02 00:38:08;;;;;;;9.30;6.43;;;6.00;99.90;;;;;;5042940;28;20496;-62
2021/03/02 00:40:34;;;;;;;13.93;7.07;;;6.00;99.90;;;;;;5035454;28;20193;-62
2021/03/02 00:42:59;;;;;;;11.70;7.83;;;6.10;99.90;;;;;;5033540;28;20190;-63
2021/03/02 00:45:25;;;;;;;8.50;7.03;;;6.10;99.90;;;;;;5035917;28;20167;-63
2021/03/02 00:47:54;;;;;;;8.37;7.30;;;6.10;99.90;;;;;;5033882;28;20186;-63
2021/03/02 00:50:22;;;;;;;8.17;6.27;;;6.20;99.90;;;;;;5035167;28;20191;-63
2021/03/02 00:52:48;;;;;;;10.67;7.33;;;6.10;99.90;;;;;;5034152;28;20402;-64
2021/03/02 00:55:14;;;;;;;7.30;6.40;;;6.10;99.90;;;;;;5020563;28;20498;-64
2021/03/02 00:57:40;;;;;;;11.13;6.87;;;5.90;99.90;;;;;;5028724;28;20556;-64
2021/03/02 01:00:07;;;;;;;8.50;7.17;;;5.90;99.90;;;;;;5034744;28;20207;-64
2021/03/02 01:02:32;;;;;;;7.67;6.57;;;6.00;99.90;;;;;;5034876;28;20607;-64
2021/03/02 01:04:58;;;;;;;9.70;7.33;;;6.00;99.90;;;;;;5034888;28;20406;-64
2021/03/02 01:07:24;;;;;;;7.47;6.67;;;6.00;99.90;;;;;;5033897;28;20182;-64
2021/03/02 01:09:50;;;;;;;8.50;6.77;;;6.10;99.90;;;;;;5035057;28;20202;-64
2021/03/02 01:12:15;;;;;;;9.77;6.57;;;6.00;99.90;;;;;;5035540;28;20156;-64
2021/03/02 01:14:41;;;;;;;7.80;6.30;;;6.00;99.90;;;;;;5027629;28;20433;-64
2021/03/02 01:17:07;;;;;;;7.97;7.00;;;6.10;99.90;;;;;;5042424;28;20175;-64
2021/03/02 01:19:32;;;;;;;9.60;7.87;;;6.00;99.90;;;;;;5040175;28;20696;-64
2021/03/02 01:21:58;;;;;;;7.67;6.07;;;5.90;99.90;;;;;;5024715;28;20171;-64
2021/03/02 01:24:24;;;;;;;9.50;6.70;;;5.90;99.90;;;;;;5035166;28;20195;-64
2021/03/02 01:26:50;;;;;;;8.53;6.70;;;5.80;99.90;;;;;;5030999;28;20183;-64
2021/03/02 01:29:15;;;;;;;8.77;6.33;;;5.60;99.90;;;;;;5034444;28;20480;-64
2021/03/02 01:31:41;;;;;;;12.70;7.37;;;5.60;99.90;;;;;;5034506;28;20919;-64
2021/03/02 01:34:07;;;;;;;8.10;6.83;;;5.60;99.90;;;;;;5019001;28;20191;-64
2021/03/02 01:36:32;;;;;;;8.80;6.93;;;5.50;99.90;;;;;;5025362;28;20589;-64
2021/03/02 01:38:58;;;;;;;9.27;7.30;;;5.50;99.90;;;;;;5045241;28;20171;-64
2021/03/02 01:41:23;;;;;;;9.80;7.27;;;5.50;99.90;;;;;;5014975;28;20183;-64
2021/03/02 01:43:49;;;;;;;7.47;6.67;;;5.50;99.90;;;;;;5014345;28;20208;-64
2021/03/02 01:46:15;;;;;;;8.33;6.90;;;5.60;99.90;;;;;;5017988;28;20175;-64
2021/03/02 01:48:41;;;;;;;8.20;7.00;;;5.60;99.90;;;;;;5033940;28;20479;-64
2021/03/02 01:51:09;;;;;;;9.40;6.10;;;5.60;99.90;;;;;;5034075;28;20168;-64
2021/03/02 01:53:35;;;;;;;7.63;6.37;;;5.50;99.90;;;;;;5033897;28;20540;-64
2021/03/02 01:56:01;;;;;;;8.90;6.67;;;5.50;99.90;;;;;;5026473;28;20524;-64
2021/03/02 01:58:29;;;;;;;9.10;6.63;;;5.60;99.90;;;;;;5033609;28;20171;-64
2021/03/02 02:01:03;;;;;;;10.67;7.60;;;5.80;99.90;;;;;;5033601;28;20698;-64
2021/03/02 02:03:56;;;;;;;9.60;7.10;;;5.70;99.90;;;;;;5026806;28;20450;-64
2021/03/02 02:06:40;;;;;;;9.70;6.47;;;5.70;99.90;;;;;;5033367;28;20406;-64
2021/03/02 02:09:12;;;;;;;11.07;6.90;;;5.60;99.90;;;;;;5033636;28;20430;-64
2021/03/02 02:11:53;;;;;;;7.30;6.40;;;5.50;99.90;;;;;;5033888;28;20763;-64
2021/03/02 02:14:51;;;;;;;7.60;6.80;;;5.50;99.90;;;;;;5026029;28;20410;-64
2021/03/02 02:17:30;;;;;;;9.27;7.23;;;5.30;99.90;;;;;;5023827;28;20433;-64
2021/03/02 02:20:00;;;;;;;7.70;6.60;;;5.40;99.90;;;;;;5016975;28;20433;-64
2021/03/02 02:23:03;;;;;;;8.23;7.20;;;5.40;99.90;;;;;;5034061;28;20438;-64
2021/03/02 02:25:45;;;;;;;8.27;6.20;;;5.30;99.90;;;;;;5033676;28;20406;-64
2021/03/02 02:28:13;;;;;;;11.00;7.70;;;5.30;99.90;;;;;;5033902;28;20879;-64
2021/03/02 02:30:40;;;;;;;10.30;7.80;;;5.20;99.90;;;;;;5033708;28;20450;-64
2021/03/02 02:33:09;;;;;;;7.80;6.50;;;5.30;99.90;;;;;;5031764;28;20402;-64
2021/03/02 02:35:38;;;;;;;9.33;8.03;;;5.30;99.90;;;;;;5016584;28;20465;-64
2021/03/02 02:38:05;;;;;;;8.97;6.80;;;5.30;99.90;;;;;;5032201;28;20433;-64
2021/03/02 02:40:31;;;;;;;10.40;7.80;;;5.30;99.90;;;;;;5032183;28;20618;-64
2021/03/02 02:42:58;;;;;;;9.07;7.60;;;5.20;99.90;;;;;;5026753;28;20457;-64
2021/03/02 02:45:24;;;;;;;8.10;7.30;;;5.30;99.90;;;;;;5033076;28;20496;-64
2021/03/02 02:47:51;;;;;;;11.43;7.13;;;5.20;99.90;;;;;;5032520;28;20418;-64
2021/03/02 02:50:18;;;;;;;10.20;7.30;;;5.10;99.90;;;;;;5033008;28;20434;-64
2021/03/02 02:52:45;;;;;;;8.90;6.67;;;5.10;99.90;;;;;;5033034;28;20406;-64
2021/03/02 02:55:15;;;;;;;9.07;7.00;;;5.10;99.90;;;;;;5019093;28;20995;-64
2021/03/02 02:57:44;;;;;;;10.47;7.83;;;5.00;99.90;;;;;;5026547;28;20421;-64
2021/03/02 03:00:11;;;;;;;9.70;7.80;;;4.90;99.90;;;;;;5032810;28;20441;-64
2021/03/02 03:02:41;;;;;;;11.33;8.27;;;4.90;99.90;;;;;;5033166;28;20814;-64
2021/03/02 03:05:14;;;;;;;11.97;8.70;;;4.80;99.90;;;;;;5032356;28;20433;-64
2021/03/02 03:07:51;;;;;;;11.27;8.10;;;4.80;99.90;;;;;;5032517;28;20406;-64
2021/03/02 03:10:18;;;;;;;12.17;8.13;;;4.70;99.90;;;;;;5032946;28;20959;-64
2021/03/02 03:12:47;;;;;;;10.20;7.50;;;4.70;99.90;;;;;;5033132;28;20429;-64
2021/03/02 03:15:16;;;;;;;10.23;7.97;;;4.70;99.90;;;;;;5031153;28;20769;-64
2021/03/02 03:17:53;;;;;;;12.07;8.77;;;4.80;99.90;;;;;;5026530;28;20786;-64
2021/03/02 03:20:21;;;;;;;13.77;7.60;;;4.90;99.90;;;;;;5032690;28;20437;-64
2021/03/02 03:22:48;;;;;;;12.07;7.57;;;4.90;99.90;;;;;;5026194;28;21029;-64
2021/03/02 03:25:14;;;;;;;11.93;8.27;;;4.90;99.90;;;;;;5032149;28;20429;-64
2021/03/02 03:27:43;;;;;;;8.13;7.27;;;4.90;99.90;;;;;;5032179;28;20926;-64
2021/03/02 03:30:11;;;;;;;8.93;7.20;;;4.90;99.90;;;;;;5032667;28;20539;-64
2021/03/02 03:32:38;;;;;;;8.77;7.87;;;4.80;99.90;;;;;;5031504;28;20410;-64
2021/03/02 03:35:05;;;;;;;10.50;7.60;;;4.80;99.90;;;;;;5026149;28;20976;-64
2021/03/02 03:37:30;;;;;;;13.53;8.97;;;4.80;99.90;;;;;;5031816;28;20946;-64
2021/03/02 03:39:56;;;;;;;12.10;7.60;;;4.80;99.90;;;;;;5031931;28;20513;-65
2021/03/02 03:42:22;;;;;;;9.33;8.33;;;4.70;99.90;;;;;;5035160;28;20166;-64
2021/03/02 03:44:49;;;;;;;13.07;8.90;;;4.50;99.90;;;;;;5031994;28;20172;-64
2021/03/02 03:47:15;;;;;;;12.83;8.10;;;4.50;99.90;;;;;;5032639;28;20183;-63
2021/03/02 03:49:41;;;;;;;9.50;8.50;;;4.60;99.90;;;;;;5032973;28;20865;-64
2021/03/02 03:52:09;;;;;;;10.30;8.50;;;4.60;99.90;;;;;;5032978;28;20164;-64
2021/03/02 03:54:35;;;;;;;10.63;8.60;;;4.60;99.90;;;;;;5032792;28;20164;-64
2021/03/02 03:57:01;;;;;;;10.33;8.37;;;4.60;99.90;;;;;;5023424;28;20430;-64
2021/03/02 03:59:28;;;;;;;11.50;8.53;;;4.60;99.90;;;;;;5031937;28;20441;-64
2021/03/02 04:01:56;;;;;;;11.00;9.10;;;4.60;99.90;;;;;;5026994;28;20586;-63
2021/03/02 04:04:24;;;;;;;9.43;7.70;;;4.50;99.90;;;;;;5031973;28;20914;-63
2021/03/02 04:06:50;;;;;;;11.63;9.53;;;4.40;99.90;;;;;;5031744;28;20410;-63
2021/03/02 04:09:17;;;;;;;12.33;8.30;;;4.40;99.90;;;;;;5031952;28;20429;-63
2021/03/02 04:11:43;;;;;;;12.27;9.47;;;4.40;99.90;;;;;;5032252;28;20502;-63
2021/03/02 04:14:09;;;;;;;13.03;9.10;;;4.50;99.90;;;;;;5026047;28;20597;-63
2021/03/02 04:16:38;;;;;;;11.13;9.60;;;4.50;99.90;;;;;;5016441;28;20507;-64
2021/03/02 04:19:05;;;;;;;11.33;9.73;;;4.40;99.90;;;;;;5032308;28;21002;-64
2021/03/02 04:21:31;;;;;;;13.60;10.53;;;4.30;99.90;;;;;;5015454;28;20426;-64
2021/03/02 04:23:57;;;;;;;14.80;10.70;;;4.30;99.90;;;;;;5019968;28;20457;-64
2021/03/02 04:26:23;;;;;;;11.43;9.27;;;4.30;99.90;;;;;;5033962;28;20432;-64
2021/03/02 04:28:48;;;;;;;10.97;9.87;;;4.30;99.90;;;;;;5035959;28;20401;-64
2021/03/02 04:31:14;;;;;;;13.33;10.07;;;4.30;99.90;;;;;;5036271;28;20707;-64
2021/03/02 04:33:40;;;;;;;12.70;10.33;;;4.30;99.90;;;;;;5035802;28;20171;-64
2021/03/02 04:36:06;;;;;;;13.30;10.77;;;4.30;99.90;;;;;;5025499;28;20202;-64
2021/03/02 04:38:31;;;;;;;14.37;10.27;;;4.30;99.90;;;;;;5034721;28;20266;-64
2021/03/02 04:40:57;;;;;;;14.87;10.60;;;4.30;99.90;;;;;;5015857;28;20511;-64
2021/03/02 04:43:23;;;;;;;13.23;9.60;;;4.20;99.90;;;;;;5033115;28;20198;-64
2021/03/02 04:45:49;;;;;;;11.90;9.20;;;4.20;99.90;;;;;;5035390;28;20640;-64
2021/03/02 04:48:14;;;;;;;13.47;10.67;;;4.20;99.90;;;;;;5034852;28;20167;-64
2021/03/02 04:50:40;;;;;;;12.40;9.70;;;4.30;99.90;;;;;;5034977;28;20430;-64
2021/03/02 04:53:06;;;;;;;17.40;11.83;;;4.20;99.90;;;;;;5034980;28;20230;-64
2021/03/02 04:55:31;;;;;;;16.30;10.57;;;4.20;99.90;;;;;;5018259;28;20172;-64
2021/03/02 04:57:57;;;;;;;15.60;10.80;;;4.20;99.90;;;;;;5031021;28;20194;-64
2021/03/02 05:00:23;;;;;;;14.17;11.17;;;4.10;99.90;;;;;;5034793;28;20668;-63
2021/03/02 05:02:49;;;;;;;12.60;10.30;;;4.20;99.90;;;;;;5035226;28;20536;-63
2021/03/02 05:05:15;;;;;;;12.57;10.07;;;4.20;99.90;;;;;;5034480;28;20857;-64
2021/03/02 05:07:40;;;;;;;11.90;9.30;;;4.20;99.90;;;;;;5035330;28;20171;-65
2021/03/02 05:10:06;;;;;;;11.90;9.40;;;4.20;99.90;;;;;;5035830;28;20290;-63
2021/03/02 05:12:32;;;;;;;12.80;10.53;;;4.20;99.90;;;;;;5035524;28;20179;-64
2021/03/02 05:14:58;;;;;;;15.73;10.40;;;4.10;99.90;;;;;;5035424;28;20414;-64
2021/03/02 05:17:23;;;;;;;13.20;10.40;;;4.20;99.90;;;;;;5025916;28;20286;-63
2021/03/02 05:19:49;;;;;;;12.43;10.80;;;4.20;99.90;;;;;;5046405;28;20203;-63
2021/03/02 05:22:15;;;;;;;16.60;11.53;;;4.20;99.90;;;;;;5027002;28;20540;-63
2021/03/02 05:24:40;;;;;;;13.23;10.43;;;4.20;99.90;;;;;;5032398;28;20187;-63
2021/03/02 05:27:06;;;;;;;14.90;11.67;;;4.20;99.90;;;;;;5027512;28;20187;-63
2021/03/02 05:29:31;;;;;;;14.43;10.20;;;4.20;99.90;;;;;;5019638;28;20307;-63
2021/03/02 05:31:57;;;;;;;19.67;13.47;;;4.10;99.90;;;;;;5015395;28;20203;-63
2021/03/02 05:34:22;;;;;;;15.00;10.87;;;4.00;99.90;;;;;;5017793;28;20184;-63
2021/03/02 05:36:48;;;;;;;13.67;10.50;;;3.90;99.90;;;;;;5027570;28;20179;-63
2021/03/02 05:39:14;;;;;;;21.90;11.77;;;3.80;99.90;;;;;;5034251;28;20603;-63
2021/03/02 05:41:41;;;;;;;13.73;9.80;;;3.70;99.90;;;;;;5021746;28;20175;-63
2021/03/02 05:44:10;;;;;;;11.93;10.50;;;3.80;99.90;;;;;;5025604;28;20196;-64
2021/03/02 05:46:37;;;;;;;16.67;12.60;;;3.90;99.90;;;;;;5037084;28;20417;-64
2021/03/02 05:49:04;;;;;;;13.70;10.93;;;3.90;99.90;;;;;;5033655;28;20437;-63
2021/03/02 05:51:30;;;;;;;17.10;13.30;;;3.80;99.90;;;;;;5034480;28;20459;-63
2021/03/02 05:53:56;;;;;;;17.20;14.10;;;3.80;99.90;;;;;;5034409;28;20410;-63
2021/03/02 05:56:22;;;;;;;15.67;12.63;;;3.80;99.90;;;;;;5018987;28;20425;-63
2021/03/02 05:58:51;;;;;;;16.10;12.10;;;3.80;99.90;;;;;;5041480;28;20921;-62
2021/03/02 06:01:17;;;;;;;18.73;13.17;;;3.90;99.90;;;;;;5027537;28;20444;-62
2021/03/02 06:03:42;;;;;;;18.53;13.93;;;3.90;99.90;;;;;;5033668;28;20536;-62
2021/03/02 06:06:08;;;;;;;15.90;12.03;;;3.80;99.90;;;;;;5033382;28;20752;-62
2021/03/02 06:08:34;;;;;;;16.23;12.10;;;3.80;99.90;;;;;;5032643;28;20182;-62
2021/03/02 06:11:25;;;;;;;16.47;11.20;;;3.80;99.90;;;;;;5071155;22;20222;-66
2021/03/02 06:13:52;;;;;;;16.50;11.40;;;3.90;99.90;;;;;;5047016;28;20405;-66
2021/03/02 06:16:18;;;;;;;15.63;11.60;;;3.80;99.90;;;;;;5035556;28;20542;-66
2021/03/02 06:18:53;;;;;;;13.87;11.63;;;3.70;99.90;;;;;;5033338;28;20462;-65
2021/03/02 06:21:22;;;;;;;15.80;12.40;;;3.80;99.90;;;;;;5036420;28;20452;-63
2021/03/02 06:23:50;;;;;;;17.63;13.13;;;3.60;99.90;;;;;;5033022;28;20461;-64
2021/03/02 06:26:25;;;;;;;15.77;13.47;;;3.70;99.90;;;;;;5025885;28;20782;-64
2021/03/02 06:28:54;;;;;;;15.60;12.80;;;3.70;99.90;;;;;;5033472;28;20406;-64
2021/03/02 06:31:43;;;;;;;16.00;14.27;;;3.70;99.90;;;;;;5032258;28;20523;-64
2021/03/02 06:34:14;;;;;;;17.43;11.87;;;3.80;99.90;;;;;;5025511;28;20437;-64
2021/03/02 06:36:42;;;;;;;18.80;13.70;;;3.80;99.90;;;;;;5032654;28;20976;-64
2021/03/02 06:39:22;;;;;;;14.23;11.20;;;3.80;99.90;;;;;;5033278;28;20409;-64
2021/03/02 06:41:52;;;;;;;12.07;10.80;;;3.80;99.90;;;;;;5031882;28;20432;-62
2021/03/02 06:44:18;;;;;;;16.77;13.30;;;4.00;99.90;;;;;;5026082;28;20443;-64
2021/03/02 06:46:43;;;;;;;13.57;11.43;;;4.00;99.90;;;;;;5014923;28;20473;-64
2021/03/02 06:49:09;;;;;;;17.47;13.23;;;4.00;99.90;;;;;;5032401;28;20167;-64
2021/03/02 06:51:39;;;;;;;19.57;13.80;;;4.00;99.90;;;;;;5032261;28;20207;-64
2021/03/02 06:54:16;;;;;;;13.50;11.03;;;4.00;99.90;;;;;;5018861;28;20421;-64
2021/03/02 06:56:43;;;;;;;19.37;12.30;;;4.00;99.90;;;;;;5033631;28;20390;-64
2021/03/02 06:59:19;;;;;;;17.43;13.33;;;4.10;99.90;;;;;;5033289;28;20453;-64
2021/03/02 07:01:47;;;;;;;15.23;12.17;;;4.10;99.90;;;;;;5033210;28;20397;-64
2021/03/02 07:04:14;;;;;;;14.93;12.50;;;4.10;99.90;;;;;;5032112;28;20814;-64
2021/03/02 07:06:44;;;;;;;25.57;13.67;;;4.10;99.90;;;;;;5024490;28;20426;-64
2021/03/02 07:09:15;;;;;;;15.43;11.77;;;4.10;99.90;;;;;;5032947;28;20446;-64
2021/03/02 07:11:41;;;;;;;16.97;13.80;;;4.20;99.90;;;;;;5028577;28;20441;-62
2021/03/02 07:14:09;;;;;;;19.53;14.17;;;4.20;99.90;;;;;;5029109;28;20969;-62
2021/03/02 07:16:44;;;;;;;17.20;13.77;;;4.30;99.90;;;;;;5024038;28;20197;-62
2021/03/02 07:19:14;;;;;;;19.47;14.13;;;4.30;99.90;;;;;;5013570;28;20401;-62
2021/03/02 07:21:42;;;;;;;17.43;13.57;;;4.30;99.90;;;;;;5013498;28;20403;-63
2021/03/02 07:24:11;;;;;;;14.10;12.47;;;4.40;99.90;;;;;;5003079;28;20464;-63
2021/03/02 07:26:43;;;;;;;15.93;12.50;;;4.50;99.90;;;;;;5016873;28;20432;-61
2021/03/02 07:29:10;;;;;;;18.43;14.90;;;4.60;99.90;;;;;;5032648;28;20744;-63
2021/03/02 07:31:37;;;;;;;14.20;12.70;;;4.70;99.90;;;;;;5015083;28;20439;-64
2021/03/02 07:34:05;;;;;;;17.93;13.87;;;4.90;99.90;;;;;;5016582;28;20415;-63
2021/03/02 07:36:36;;;;;;;16.47;12.90;;;5.00;99.90;;;;;;5012376;28;20419;-63
2021/03/02 07:39:20;;;;;;;18.37;13.67;;;5.10;99.90;;;;;;5027817;28;20840;-64
2021/03/02 07:41:51;;;;;;;17.27;12.70;;;5.20;99.90;;;;;;5037956;28;20448;-59
2021/03/02 07:44:19;;;;;;;16.53;14.10;;;5.40;99.90;;;;;;5038556;28;20456;-61
2021/03/02 07:46:52;;;;;;;16.60;13.17;;;5.50;99.90;;;;;;5035549;28;20453;-61
2021/03/02 07:49:24;;;;;;;18.53;13.67;;;5.60;99.90;;;;;;5038526;28;20452;-62
2021/03/02 07:52:02;;;;;;;17.43;14.90;;;5.80;99.90;;;;;;5016202;28;20407;-62
2021/03/02 07:54:35;;;;;;;21.03;15.80;;;5.90;99.90;;;;;;5034225;28;20421;-62
2021/03/02 07:57:16;;;;;;;17.30;14.07;;;6.00;99.90;;;;;;5038957;28;20414;-62
2021/03/02 07:59:46;;;;;;;16.90;13.37;;;6.10;99.90;;;;;;5038295;28;20421;-63
2021/03/02 08:02:19;;;;;;;15.90;13.30;;;6.20;99.90;;;;;;5041339;28;20406;-62
2021/03/02 08:04:55;;;;;;;17.80;14.03;;;6.30;99.90;;;;;;5031314;28;20423;-62
2021/03/02 08:07:22;;;;;;;18.87;14.00;;;6.40;99.90;;;;;;5038710;28;20508;-62
2021/03/02 08:09:50;;;;;;;25.00;14.90;;;6.60;99.90;;;;;;5020543;28;629423;-61
2021/03/02 08:12:32;;;;;;;27.20;15.63;;;6.70;99.90;;;;;;5042919;28;20414;-62
2021/03/02 08:15:00;;;;;;;22.87;15.73;;;6.80;99.90;;;;;;5043679;28;20822;-62
2021/03/02 08:17:27;;;;;;;22.93;15.10;;;6.90;99.90;;;;;;5043425;28;20433;-61
2021/03/02 08:20:01;;;;;;;21.33;15.93;;;7.00;99.90;;;;;;5024692;28;20473;-61
2021/03/02 08:22:27;;;;;;;19.53;16.40;;;7.10;99.90;;;;;;5043479;28;20437;-63
2021/03/02 08:24:58;;;;;;;22.17;14.67;;;7.20;99.90;;;;;;5043436;28;20402;-62
2021/03/02 08:27:39;;;;;;;21.30;17.00;;;7.20;99.90;;;;;;5024595;28;20958;-62
2021/03/02 08:30:10;;;;;;;24.00;16.43;;;7.40;99.90;;;;;;5043314;28;20554;-62
2021/03/02 08:32:37;;;;;;;24.33;15.30;;;7.40;99.90;;;;;;5042209;28;20421;-63
2021/03/02 08:35:08;;;;;;;18.90;16.90;;;7.50;99.90;;;;;;5034950;28;20503;-62
2021/03/02 08:37:41;;;;;;;20.53;15.80;;;7.60;99.90;;;;;;5040528;28;20404;-61
2021/03/02 08:40:09;;;;;;;17.97;16.07;;;7.50;99.90;;;;;;5043769;28;20464;-61
2021/03/02 08:42:34;;;;;;;17.57;15.10;;;7.40;99.90;;;;;;5025381;28;20441;-61
2021/03/02 08:45:09;;;;;;;18.97;16.80;;;7.50;99.90;;;;;;5043132;28;20409;-60
2021/03/02 08:47:37;;;;;;;21.40;15.80;;;7.60;99.90;;;;;;5043154;28;20686;-60
2021/03/02 08:50:04;;;;;;;22.07;15.97;;;7.60;99.90;;;;;;5043170;28;20517;-60
2021/03/02 08:52:37;;;;;;;20.30;15.60;;;7.60;99.90;;;;;;5043511;28;20413;-60
2021/03/02 08:55:04;;;;;;;20.83;16.50;;;7.80;99.90;;;;;;5024970;28;20468;-61
2021/03/02 08:57:30;;;;;;;22.77;16.73;;;8.00;99.90;;;;;;5043581;28;20410;-60
2021/03/02 08:59:55;;;;;;;21.37;17.73;;;7.90;99.90;;;;;;5042811;28;20429;-61
2021/03/02 09:02:21;;;;;;;24.43;17.50;;;7.90;99.90;;;;;;5043607;28;20172;-63
2021/03/02 09:04:47;;;;;;;24.00;17.10;;;8.00;99.90;;;;;;5042853;28;20414;-61
2021/03/02 09:07:13;;;;;;;23.13;16.97;;;8.20;99.90;;;;;;5043931;28;20202;-61
2021/03/02 09:09:39;;;;;;;21.63;16.43;;;8.40;99.90;;;;;;5043579;28;20198;-62
2021/03/02 09:12:05;;;;;;;20.10;16.10;;;8.50;99.90;;;;;;5041689;28;20394;-62
2021/03/02 09:14:35;;;;;;;21.67;15.73;;;8.60;99.90;;;;;;5043365;28;20535;-62
2021/03/02 09:17:02;;;;;;;20.17;16.37;;;8.70;99.90;;;;;;5043900;28;20417;-62
2021/03/02 09:19:40;;;;;;;23.20;16.07;;;8.60;99.90;;;;;;5043984;28;20414;-62
2021/03/02 09:22:14;;;;;;;30.73;17.40;;;8.70;99.90;;;;;;5043481;28;20379;-62
2021/03/02 09:24:47;;;;;;;24.57;16.40;;;8.90;99.90;;;;;;5043849;28;20473;-62
2021/03/02 09:27:18;;;;;;;18.60;15.63;;;8.80;99.90;;;;;;5043870;28;20393;-62
2021/03/02 09:29:52;;;;;;;16.40;14.70;;;8.90;99.90;;;;;;5044333;28;20419;-62
2021/03/02 09:32:30;;;;;;;20.63;14.50;;;9.00;99.90;;;;;;5044198;28;20488;-64
2021/03/02 09:35:04;;;;;;;21.00;16.37;;;9.20;99.90;;;;;;5026011;28;20405;-61
2021/03/02 09:37:30;;;;;;;21.77;16.57;;;9.20;99.90;;;;;;5042490;28;20385;-62
2021/03/02 09:40:00;;;;;;;24.63;15.77;;;9.20;99.90;;;;;;5025914;28;20428;-62
2021/03/02 09:42:27;;;;;;;19.53;16.43;;;9.40;99.90;;;;;;5046565;28;20887;-62
2021/03/02 09:44:55;;;;;;;19.80;16.33;;;9.60;99.90;;;;;;5043609;28;20471;-62
2021/03/02 09:47:24;;;;;;;16.23;14.37;;;9.80;99.90;;;;;;5043983;28;20404;-59
2021/03/02 09:50:10;;;;;;;21.47;16.73;;;10.00;99.90;;;;;;5042773;28;20464;-62
2021/03/02 09:52:49;;;;;;;18.83;14.83;;;10.10;99.90;;;;;;5041741;28;20410;-61
2021/03/02 09:55:15;;;;;;;18.63;16.10;;;10.30;99.90;;;;;;5042393;28;20428;-62
2021/03/02 09:58:13;;;;;;;21.57;16.40;;;10.30;99.90;;;;;;5042858;28;20410;-62
2021/03/02 10:00:45;;;;;;;21.60;16.57;;;10.40;99.90;;;;;;5042630;28;20414;-61
2021/03/02 10:03:25;;;;;;;20.80;15.70;;;10.40;99.90;;;;;;5042328;28;20476;-62
2021/03/02 10:06:00;;;;;;;15.67;14.07;;;10.50;99.90;;;;;;5040972;28;20472;-62
2021/03/02 10:08:30;;;;;;;18.80;14.90;;;10.50;99.90;;;;;;5042696;28;20390;-62
2021/03/02 10:11:01;;;;;;;18.60;15.13;;;10.60;99.90;;;;;;5043339;28;20441;-62
2021/03/02 10:13:35;;;;;;;16.70;13.60;;;10.90;99.90;;;;;;5043839;28;20429;-62
2021/03/02 10:16:14;;;;;;;19.37;15.40;;;11.10;99.90;;;;;;5043169;28;20477;-61
2021/03/02 10:18:46;;;;;;;17.40;14.50;;;11.10;99.90;;;;;;5039935;28;20421;-61
2021/03/02 10:21:12;;;;;;;17.40;14.53;;;11.00;99.90;;;;;;5041016;28;20428;-62
2021/03/02 10:23:52;;;;;;;17.00;14.70;;;11.20;99.90;;;;;;5041501;28;20452;-62
2021/03/02 10:26:35;;;;;;;18.83;14.80;;;11.40;99.90;;;;;;5038906;28;20696;-61
2021/03/02 10:29:02;;;;;;;19.97;15.33;;;11.50;99.90;;;;;;5036273;28;20393;-62
2021/03/02 10:31:29;;;;;;;18.73;14.97;;;11.50;99.90;;;;;;5036794;28;20587;-61
2021/03/02 10:33:55;;;;;;;20.60;16.10;;;11.70;99.90;;;;;;5016659;28;20417;-61
2021/03/02 10:36:26;;;;;;;18.33;15.00;;;11.80;99.90;;;;;;5036997;28;20891;-62
2021/03/02 10:38:53;;;;;;;19.60;15.10;;;12.00;99.90;;;;;;5039135;28;20163;-62
2021/03/02 10:41:19;;;;;;;15.50;12.97;;;12.00;99.50;;;;;;5040845;28;20425;-62
2021/03/02 10:43:47;;;;;;;18.23;14.33;;;12.00;99.60;;;;;;5041722;28;20454;-60
2021/03/02 10:46:12;;;;;;;15.93;13.37;;;12.00;99.50;;;;;;5041494;28;20413;-62
2021/03/02 10:48:38;;;;;;;17.40;14.93;;;12.30;99.90;;;;;;5040294;28;20405;-63
2021/03/02 10:51:05;;;;;;;19.90;15.40;;;12.50;99.10;;;;;;5040959;28;20193;-62
2021/03/02 10:53:30;;;;;;;17.93;15.30;;;12.70;98.80;;;;;;5041859;28;20171;-62
2021/03/02 10:55:56;;;;;;;17.17;14.93;;;12.80;98.30;;;;;;5041648;28;20462;-62
2021/03/02 10:58:22;;;;;;;17.50;13.93;;;12.80;98.50;;;;;;5041540;28;20186;-62
2021/03/02 11:00:47;;;;;;;21.53;15.40;;;12.70;98.20;;;;;;5042309;28;20217;-62
2021/03/02 11:03:13;;;;;;;21.23;15.53;;;12.70;98.60;;;;;;5041245;28;20191;-65
2021/03/02 11:05:38;;;;;;;18.33;14.73;;;12.80;98.70;;;;;;5041949;28;20171;-62
2021/03/02 11:08:04;;;;;;;20.43;15.30;;;13.00;98.00;;;;;;5040534;28;20161;-62
2021/03/02 11:10:30;;;;;;;20.53;15.20;;;13.10;97.60;;;;;;5040667;28;20225;-61
2021/03/02 11:12:56;;;;;;;20.00;15.00;;;13.10;97.80;;;;;;5041422;28;20399;-62
2021/03/02 11:15:21;;;;;;;19.63;14.80;;;13.20;97.50;;;;;;5041500;28;20168;-62
2021/03/02 11:17:47;;;;;;;18.30;14.80;;;13.20;97.20;;;;;;5041591;28;20197;-62
2021/03/02 11:20:13;;;;;;;17.20;15.40;;;13.30;97.30;;;;;;5039845;28;20230;-60
2021/03/02 11:22:38;;;;;;;19.10;14.57;;;13.40;97.00;;;;;;5041184;28;20201;-62
2021/03/02 11:25:04;;;;;;;18.73;15.63;;;14.10;96.10;;;;;;5041045;28;20487;-61
2021/03/02 11:27:30;;;;;;;15.80;14.20;;;15.70;94.70;;;;;;5035584;28;20217;-62
2021/03/02 11:29:56;;;;;;;19.20;15.73;;;17.80;91.80;;;;;;5034310;28;20517;-62
2021/03/02 11:32:21;;;;;;;17.73;15.83;;;19.00;86.30;;;;;;5041908;28;20175;-62
2021/03/02 11:34:47;;;;;;;20.27;14.87;;;20.00;81.40;;;;;;5040079;28;20171;-62
2021/03/02 11:37:13;;;;;;;17.23;15.33;;;21.10;76.30;;;;;;5047317;28;20257;-61
2021/03/02 11:39:38;;;;;;;19.07;16.07;;;21.40;72.30;;;;;;5045818;28;20191;-61
2021/03/02 11:42:04;;;;;;;18.03;15.43;;;22.10;67.90;;;;;;5033555;28;20179;-62
2021/03/02 11:44:31;;;;;;;17.70;15.80;;;22.50;66.00;;;;;;5044247;28;20810;-62
2021/03/02 11:46:57;;;;;;;16.17;14.57;;;22.10;64.90;;;;;;5027601;28;20168;-62
2021/03/02 11:49:23;;;;;;;16.80;15.00;;;23.20;64.30;;;;;;5044416;28;20497;-62
2021/03/02 11:51:48;;;;;;;16.27;14.40;;;23.40;60.80;;;;;;5045532;28;20429;-62
2021/03/02 11:54:14;;;;;;;19.73;16.03;;;22.80;59.60;;;;;;5045508;28;20167;-62
2021/03/02 11:56:39;;;;;;;17.53;14.73;;;21.90;60.40;;;;;;5045532;28;20167;-61
2021/03/02 11:59:05;;;;;;;18.97;14.80;;;21.50;61.60;;;;;;5045989;28;20539;-62
2021/03/02 12:01:30;;;;;;;16.57;14.90;;;22.60;60.00;;;;;;5044103;28;20198;-62
2021/03/02 12:03:56;;;;;;;16.27;14.03;;;22.10;59.30;;;;;;5044452;28;20202;-62
2021/03/02 12:06:21;;;;;;;15.30;13.70;;;23.00;59.60;;;;;;5045176;28;20236;-62
2021/03/02 12:08:47;;;;;;;16.30;14.70;;;22.80;58.80;;;;;;5045386;28;20163;-62
2021/03/02 12:11:13;;;;;;;18.60;13.40;;;22.60;58.20;;;;;;5088652;23;20623;-63
2021/03/02 12:13:39;;;;;;;17.90;14.40;;;23.00;59.00;;;;;;5056613;28;20178;-63
2021/03/02 12:16:06;;;;;;;15.37;13.87;;;24.20;56.60;;;;;;5055235;28;20670;-64
2021/03/02 12:18:32;;;;;;;16.57;14.87;;;23.80;55.30;;;;;;5055315;28;20416;-64
2021/03/02 12:20:57;;;;;;;15.77;14.17;;;23.80;55.20;;;;;;5055955;28;20417;-64
2021/03/02 12:23:23;;;;;;;21.53;15.60;;;24.30;54.50;;;;;;5055869;28;20241;-64
2021/03/02 12:25:48;;;;;;;16.10;13.80;;;24.10;52.90;;;;;;5055920;28;20170;-64
2021/03/02 12:28:14;;;;;;;16.20;14.20;;;24.30;52.90;;;;;;5056049;28;20174;-64
2021/03/02 12:30:39;;;;;;;14.87;13.23;;;24.60;52.70;;;;;;5055886;28;20261;-64
2021/03/02 12:33:05;;;;;;;15.53;13.90;;;25.60;51.30;;;;;;5055534;28;20196;-65
2021/03/02 12:35:31;;;;;;;14.83;12.97;;;26.40;48.70;;;;;;5055855;28;20216;-64
2021/03/02 12:37:57;;;;;;;19.50;15.40;;;26.90;47.90;;;;;;5054905;28;20444;-64
2021/03/02 12:40:23;;;;;;;17.20;15.30;;;26.30;46.40;;;;;;5055508;28;20195;-64
2021/03/02 12:42:48;;;;;;;17.27;15.20;;;25.70;47.60;;;;;;5055815;28;20331;-64
2021/03/02 12:45:15;;;;;;;15.63;13.40;;;26.20;46.40;;;;;;5055900;28;20599;-64
2021/03/02 12:47:40;;;;;;;17.43;13.77;;;25.10;48.10;;;;;;5036514;28;20178;-64